createdAt,value
2023-01-28T00:02:17.904Z,97157.72
2023-01-28T00:04:45.465Z,97158.28
2023-01-28T00:07:13.015Z,97161.38
2023-01-28T00:09:40.566Z,97155.31
2023-01-28T00:12:09.580Z,97151.22
2023-01-28T00:14:37.241Z,97150.72
2023-01-28T00:17:06.217Z,97156.91
2023-01-28T00:19:33.885Z,97157.91
2023-01-28T00:22:01.898Z,97156.06
2023-01-28T00:24:29.628Z,97166.31
2023-01-28T00:26:57.338Z,97164.47
2023-01-28T00:29:26.278Z,97165.31
2023-01-28T00:31:53.905Z,97159.34
2023-01-28T00:34:22.433Z,97165.41
2023-01-28T00:36:57.992Z,97160.38
2023-01-28T00:39:26.918Z,97164.69
2023-01-28T00:41:54.804Z,97160.59
2023-01-28T00:44:22.847Z,97148.78
2023-01-28T00:46:51.668Z,97155.56
2023-01-28T00:49:19.467Z,97151.22
2023-01-28T00:51:48.817Z,97152.91
2023-01-28T00:54:16.496Z,97149.59
2023-01-28T00:56:44.013Z,97154.22
2023-01-28T00:59:12.105Z,97151.06
2023-01-28T01:01:39.706Z,97152.69
2023-01-28T01:04:08.641Z,97151.56
2023-01-28T01:06:38.230Z,97158.94
2023-01-28T01:09:08.667Z,97156.19
2023-01-28T01:11:36.623Z,97156.66
2023-01-28T01:14:05.318Z,97158.91
2023-01-28T01:16:36.058Z,97164.75
2023-01-28T01:19:04.212Z,97167.09
2023-01-28T01:21:33.144Z,97158.59
2023-01-28T01:24:00.724Z,97163.63
2023-01-28T01:26:28.357Z,97170.41
2023-01-28T01:28:56.240Z,97170.19
2023-01-28T01:31:24.046Z,97177.91
2023-01-28T01:33:52.954Z,97182.09
2023-01-28T01:36:22.036Z,97175.34
2023-01-28T01:38:54.388Z,97175.53
2023-01-28T01:41:27.361Z,97188.19
2023-01-28T01:43:57.916Z,97183.75
2023-01-28T01:46:33.572Z,97184.66
2023-01-28T01:49:08.898Z,97188.88
2023-01-28T01:51:37.793Z,97188.19
2023-01-28T01:54:07.419Z,97198.97
2023-01-28T01:56:39.996Z,97186.66
2023-01-28T01:59:13.131Z,97197.84
2023-01-28T02:01:41.152Z,97198.56
2023-01-28T02:04:13.723Z,97193.34
2023-01-28T02:06:42.800Z,97190.88
2023-01-28T02:09:25.126Z,97193.94
2023-01-28T02:11:55.440Z,97189.50
2023-01-28T02:14:31.509Z,97189.31
2023-01-28T02:16:59.957Z,97185.59
2023-01-28T02:19:33.353Z,97194.22
2023-01-28T02:22:46.439Z,97194.22
2023-01-28T02:25:49.569Z,97181.50
2023-01-28T02:28:28.557Z,97191.16
2023-01-28T02:31:02.330Z,97190.44
2023-01-28T02:33:36.706Z,97192.91
2023-01-28T02:36:10.968Z,97190.22
2023-01-28T02:38:43.552Z,97184.38
2023-01-28T02:41:17.302Z,97182.50
2023-01-28T02:43:48.069Z,97185.81
2023-01-28T02:46:39.222Z,97189.31
2023-01-28T02:49:12.399Z,97188.81
2023-01-28T02:52:03.761Z,97194.16
2023-01-28T02:54:39.601Z,97191.59
2023-01-28T02:57:18.433Z,97185.63
2023-01-28T02:59:53.701Z,97186.53
2023-01-28T03:02:27.358Z,97176.41
2023-01-28T03:05:01.319Z,97183.38
2023-01-28T03:07:33.329Z,97185.00
2023-01-28T03:10:04.298Z,97177.22
2023-01-28T03:12:50.927Z,97188.28
2023-01-28T03:15:40.706Z,97186.44
2023-01-28T03:18:29.647Z,97195.69
2023-01-28T03:21:21.141Z,97189.81
2023-01-28T03:24:11.647Z,97187.38
2023-01-28T03:27:04.386Z,97184.19
2023-01-28T03:29:51.975Z,97179.88
2023-01-28T03:32:39.447Z,97187.38
2023-01-28T03:35:27.360Z,97189.72
2023-01-28T03:37:55.200Z,97196.41
2023-01-28T03:40:22.781Z,97198.63
2023-01-28T03:42:52.226Z,97191.66
2023-01-28T03:45:21.352Z,97196.06
2023-01-28T03:47:50.234Z,97201.22
2023-01-28T03:50:17.879Z,97200.50
2023-01-28T03:52:45.420Z,97204.00
2023-01-28T03:55:14.987Z,97216.53
2023-01-28T03:57:44.781Z,97213.84
2023-01-28T04:00:13.868Z,97216.44
2023-01-28T04:02:41.514Z,97205.94
2023-01-28T04:05:14.570Z,97213.63
2023-01-28T04:07:42.441Z,97206.88
2023-01-28T04:10:11.235Z,97208.59
2023-01-28T04:12:38.772Z,97213.84
2023-01-28T04:15:15.868Z,97217.25
2023-01-28T04:17:46.681Z,97212.72
2023-01-28T04:20:16.096Z,97213.53
2023-01-28T04:22:44.057Z,97212.50
2023-01-28T04:25:11.651Z,97214.16
2023-01-28T04:27:39.225Z,97220.91
2023-01-28T04:30:08.016Z,97220.69
2023-01-28T04:32:36.629Z,97220.50
2023-01-28T04:35:04.191Z,97232.22
2023-01-28T04:37:33.048Z,97224.50
2023-01-28T04:40:00.603Z,97233.94
2023-01-28T04:42:28.127Z,97233.25
2023-01-28T04:44:55.643Z,97239.41
2023-01-28T04:47:23.151Z,97239.63
2023-01-28T04:49:50.967Z,97239.63
2023-01-28T04:52:18.607Z,97246.59
2023-01-28T04:54:47.474Z,97247.66
2023-01-28T04:57:15.812Z,97252.88
2023-01-28T04:59:43.435Z,97252.97
2023-01-28T05:02:10.999Z,97253.81
2023-01-28T05:04:38.522Z,97250.41
2023-01-28T05:07:06.048Z,97257.28
2023-01-28T05:09:33.560Z,97252.88
2023-01-28T05:12:02.421Z,97261.41
2023-01-28T05:14:29.984Z,97261.53
2023-01-28T05:16:57.635Z,97252.97
2023-01-28T05:19:25.278Z,97260.59
2023-01-28T05:21:52.907Z,97262.25
2023-01-28T05:24:21.532Z,97261.31
2023-01-28T05:26:49.209Z,97272.19
2023-01-28T05:29:18.022Z,97266.94
2023-01-28T05:31:45.599Z,97266.03
2023-01-28T05:34:13.134Z,97260.88
2023-01-28T05:36:41.253Z,97260.97
2023-01-28T05:39:08.984Z,97258.31
2023-01-28T05:41:36.497Z,97256.56
2023-01-28T05:44:04.214Z,97258.09
2023-01-28T05:46:33.059Z,97259.75
2023-01-28T05:49:00.576Z,97256.47
2023-01-28T05:51:28.176Z,97250.72
2023-01-28T05:53:55.658Z,97258.50
2023-01-28T05:56:23.234Z,97263.88
2023-01-28T05:58:50.767Z,97263.16
2023-01-28T06:01:18.302Z,97264.91
2023-01-28T06:03:47.189Z,97269.31
2023-01-28T06:06:14.677Z,97264.28
2023-01-28T06:08:42.422Z,97275.50
2023-01-28T06:11:09.972Z,97266.84
2023-01-28T06:13:37.783Z,97273.66
2023-01-28T06:16:05.986Z,97272.00
2023-01-28T06:18:33.557Z,97285.66
2023-01-28T06:21:02.432Z,97290.78
2023-01-28T06:23:29.985Z,97289.78
2023-01-28T06:25:58.173Z,97290.59
2023-01-28T06:28:26.371Z,97304.16
2023-01-28T06:30:54.206Z,97315.97
2023-01-28T06:33:22.301Z,97309.69
2023-01-28T06:35:49.799Z,97300.94
2023-01-28T06:38:18.691Z,97308.66
2023-01-28T06:40:46.207Z,97319.03
2023-01-28T06:43:13.718Z,97321.00
2023-01-28T06:45:41.222Z,97319.47
2023-01-28T06:48:09.004Z,97324.47
2023-01-28T06:50:36.678Z,97326.72
2023-01-28T06:53:04.258Z,97324.88
2023-01-28T06:55:33.195Z,97331.88
2023-01-28T06:58:00.692Z,97332.72
2023-01-28T07:00:28.173Z,97336.41
2023-01-28T07:02:57.059Z,97341.66
2023-01-28T07:05:24.957Z,97348.41
2023-01-28T07:07:52.632Z,97338.03
2023-01-28T07:10:20.211Z,97346.38
2023-01-28T07:12:49.147Z,97344.72
2023-01-28T07:15:16.852Z,97347.09
2023-01-28T07:17:44.969Z,97354.28
2023-01-28T07:20:15.851Z,97352.41
2023-01-28T07:22:44.805Z,97347.59
2023-01-28T07:25:14.444Z,97350.38
2023-01-28T07:27:49.232Z,97359.00
2023-01-28T07:30:17.533Z,97359.00
2023-01-28T07:32:45.410Z,97359.81
2023-01-28T07:35:13.770Z,97355.63
2023-01-28T07:37:41.333Z,97352.31
2023-01-28T07:40:11.701Z,97363.41
2023-01-28T07:42:39.930Z,97362.50
2023-01-28T07:45:09.785Z,97363.22
2023-01-28T07:47:37.353Z,97364.88
2023-01-28T07:50:05.401Z,97366.63
2023-01-28T07:52:38.193Z,97360.44
2023-01-28T07:55:06.067Z,97371.13
2023-01-28T07:57:33.673Z,97371.94
2023-01-28T08:00:01.266Z,97368.56
2023-01-28T08:02:30.269Z,97373.50
2023-01-28T08:04:59.399Z,97369.06
2023-01-28T08:07:26.999Z,97372.56
2023-01-28T08:09:54.509Z,97376.09
2023-01-28T08:12:22.096Z,97377.00
2023-01-28T08:14:49.596Z,97376.09
2023-01-28T08:17:17.129Z,97382.03
2023-01-28T08:19:46.043Z,97385.50
2023-01-28T08:22:13.593Z,97377.09
2023-01-28T08:24:41.147Z,97387.47
2023-01-28T08:27:08.710Z,97395.19
2023-01-28T08:29:36.272Z,97398.66
2023-01-28T08:32:03.836Z,97398.66
2023-01-28T08:34:31.459Z,97394.34
2023-01-28T08:37:00.429Z,97397.75
2023-01-28T08:39:28.379Z,97401.16
2023-01-28T08:41:55.879Z,97395.19
2023-01-28T08:44:23.434Z,97395.06
2023-01-28T08:46:50.961Z,97390.66
2023-01-28T08:49:18.491Z,97400.75
2023-01-28T08:51:45.994Z,97399.09
2023-01-28T08:54:14.831Z,97407.50
2023-01-28T08:56:44.716Z,97405.88
2023-01-28T08:59:12.429Z,97402.28
2023-01-28T09:01:40.068Z,97404.03
2023-01-28T09:04:07.956Z,97406.59
2023-01-28T09:06:35.609Z,97414.31
2023-01-28T09:09:03.169Z,97409.34
2023-01-28T09:11:32.158Z,97407.72
2023-01-28T09:13:59.741Z,97411.03
2023-01-28T09:16:27.641Z,97412.66
2023-01-28T09:18:55.283Z,97415.03
2023-01-28T09:21:22.835Z,97411.03
2023-01-28T09:23:50.425Z,97419.84
2023-01-28T09:26:17.976Z,97421.50
2023-01-28T09:28:48.522Z,97419.00
2023-01-28T09:31:16.110Z,97423.13
2023-01-28T09:33:43.806Z,97425.41
2023-01-28T09:36:12.509Z,97421.06
2023-01-28T09:38:40.000Z,97428.47
2023-01-28T09:41:24.054Z,97432.56
2023-01-28T09:44:09.648Z,97428.88
2023-01-28T09:46:39.078Z,97437.09
2023-01-28T09:49:18.886Z,97442.75
2023-01-28T09:51:51.698Z,97445.09
2023-01-28T09:54:25.303Z,97449.84
2023-01-28T09:56:59.393Z,97449.84
2023-01-28T09:59:37.005Z,97451.69
2023-01-28T10:02:22.186Z,97446.03
2023-01-28T10:04:59.721Z,97450.66
2023-01-28T10:07:37.318Z,97445.75
2023-01-28T10:10:10.475Z,97441.72
2023-01-28T10:13:06.033Z,97446.16
2023-01-28T10:15:55.048Z,97441.00
2023-01-28T10:18:32.085Z,97439.25
2023-01-28T10:21:07.575Z,97436.59
2023-01-28T10:23:45.108Z,97436.50
2023-01-28T10:26:23.326Z,97436.28
2023-01-28T10:28:55.869Z,97432.78
2023-01-28T10:31:31.761Z,97432.47
2023-01-28T10:33:59.951Z,97432.47
2023-01-28T10:36:27.889Z,97431.34
2023-01-28T10:38:55.418Z,97436.16
2023-01-28T10:41:25.734Z,97428.44
2023-01-28T10:43:53.678Z,97438.09
2023-01-28T10:46:24.950Z,97438.31
2023-01-28T10:49:03.598Z,97435.03
2023-01-28T10:51:32.675Z,97431.75
2023-01-28T10:54:00.383Z,97428.47
2023-01-28T10:56:30.402Z,97426.69
2023-01-28T10:59:01.386Z,97424.94
2023-01-28T11:01:42.672Z,97428.94
2023-01-28T11:04:20.839Z,97426.06
2023-01-28T11:06:57.454Z,97428.94
2023-01-28T11:09:28.036Z,97423.47
2023-01-28T11:11:55.581Z,97426.66
2023-01-28T11:14:25.690Z,97429.09
2023-01-28T11:16:56.559Z,97431.81
2023-01-28T11:19:30.501Z,97431.91
2023-01-28T11:21:59.545Z,97424.28
2023-01-28T11:24:31.351Z,97425.13
2023-01-28T11:27:01.806Z,97427.47
2023-01-28T11:29:32.914Z,97434.97
2023-01-28T11:32:01.201Z,97431.25
2023-01-28T11:34:36.119Z,97434.53
2023-01-28T11:37:05.785Z,97439.50
2023-01-28T11:39:33.519Z,97433.41
2023-01-28T11:42:18.541Z,97430.81
2023-01-28T11:44:47.532Z,97435.06
2023-01-28T11:47:36.624Z,97432.25
2023-01-28T11:50:29.492Z,97437.50
2023-01-28T11:53:07.995Z,97433.16
2023-01-28T11:55:42.809Z,97429.91
2023-01-28T11:58:22.865Z,97431.06
2023-01-28T12:01:01.421Z,97426.81
2023-01-28T12:03:44.393Z,97427.34
2023-01-28T12:06:29.371Z,97428.03
2023-01-28T12:09:09.402Z,97418.66
2023-01-28T12:12:05.179Z,97423.81
2023-01-28T12:14:44.086Z,97421.97
2023-01-28T12:17:26.437Z,97417.63
2023-01-28T12:20:06.736Z,97419.16
2023-01-28T12:22:50.835Z,97419.88
2023-01-28T12:25:32.209Z,97423.16
2023-01-28T12:28:08.498Z,97418.41
2023-01-28T12:30:49.883Z,97405.72
2023-01-28T12:33:37.984Z,97412.06
2023-01-28T12:36:19.176Z,97404.81
2023-01-28T12:38:59.276Z,97407.03
2023-01-28T12:41:34.097Z,97412.09
2023-01-28T12:44:06.809Z,97407.03
2023-01-28T12:46:42.664Z,97414.09
2023-01-28T12:49:18.435Z,97421.19
2023-01-28T12:51:53.872Z,97414.41
2023-01-28T12:54:29.951Z,97409.03
2023-01-28T12:56:59.043Z,97410.66
2023-01-28T12:59:32.490Z,97414.19
2023-01-28T13:02:18.629Z,97415.34
2023-01-28T13:04:51.903Z,97416.59
2023-01-28T13:07:26.888Z,97413.44
2023-01-28T13:10:04.680Z,97416.91
2023-01-28T13:12:33.499Z,97416.91
2023-01-28T13:15:02.138Z,97420.44
2023-01-28T13:17:31.362Z,97418.91
2023-01-28T13:19:59.634Z,97420.88
2023-01-28T13:22:31.021Z,97422.97
2023-01-28T13:25:19.457Z,97420.59
2023-01-28T13:27:56.098Z,97419.16
2023-01-28T13:30:26.893Z,97421.72
2023-01-28T13:33:00.109Z,97422.44
2023-01-28T13:35:34.305Z,97427.41
2023-01-28T13:38:09.330Z,97424.59
2023-01-28T13:40:41.628Z,97424.59
2023-01-28T13:43:28.957Z,97422.72
2023-01-28T13:45:59.080Z,97422.72
2023-01-28T13:48:33.952Z,97420.25
2023-01-28T13:51:03.945Z,97431.50
2023-01-28T13:53:41.973Z,97429.25
2023-01-28T13:56:22.100Z,97425.88
2023-01-28T13:59:23.011Z,97422.25
2023-01-28T14:02:08.200Z,97430.56
2023-01-28T14:05:16.864Z,97435.59
2023-01-28T14:08:06.263Z,97434.69
2023-01-28T14:10:49.955Z,97440.03
2023-01-28T14:13:50.913Z,97441.91
2023-01-28T14:16:42.037Z,97452.41
2023-01-28T14:19:14.441Z,97448.31
2023-01-28T14:21:42.317Z,97457.03
2023-01-28T14:24:17.163Z,97456.47
2023-01-28T14:26:54.252Z,97461.69
2023-01-28T14:29:42.636Z,97462.84
2023-01-28T14:32:15.825Z,97466.34
2023-01-28T14:34:45.030Z,97459.56
2023-01-28T14:37:16.642Z,97471.59
2023-01-28T14:39:47.846Z,97469.13
2023-01-28T14:42:22.950Z,97477.97
2023-01-28T14:45:03.048Z,97477.28
2023-01-28T14:47:43.644Z,97478.22
2023-01-28T14:50:36.178Z,97477.38
2023-01-28T14:53:27.255Z,97480.88
2023-01-28T14:56:00.958Z,97491.28
2023-01-28T14:58:32.825Z,97490.34
2023-01-28T15:01:03.311Z,97489.44
2023-01-28T15:03:38.606Z,97493.88
2023-01-28T15:06:07.798Z,97493.25
2023-01-28T15:08:35.925Z,97496.75
2023-01-28T15:11:04.310Z,97498.38
2023-01-28T15:13:35.683Z,97491.38
2023-01-28T15:16:05.806Z,97496.53
2023-01-28T15:18:36.258Z,97500.03
2023-01-28T15:21:04.814Z,97499.00
2023-01-28T15:23:35.106Z,97497.16
2023-01-28T15:26:06.399Z,97497.88
2023-01-28T15:28:36.949Z,97499.50
2023-01-28T15:31:06.753Z,97503.53
2023-01-28T15:33:34.415Z,97505.88
2023-01-28T15:36:02.154Z,97513.00
2023-01-28T15:38:30.192Z,97514.94
2023-01-28T15:41:00.819Z,97512.38
2023-01-28T15:43:31.477Z,97521.03
2023-01-28T15:46:01.469Z,97527.31
2023-01-28T15:48:33.041Z,97534.63
2023-01-28T15:51:02.980Z,97530.69
2023-01-28T15:53:34.697Z,97533.50
2023-01-28T15:56:07.144Z,97538.72
2023-01-28T15:58:37.114Z,97535.44
2023-01-28T16:01:14.983Z,97539.53
2023-01-28T16:03:45.928Z,97542.03
2023-01-28T16:06:17.674Z,97539.38
2023-01-28T16:08:54.117Z,97543.47
2023-01-28T16:11:24.683Z,97544.19
2023-01-28T16:13:52.977Z,97548.22
2023-01-28T16:16:30.567Z,97545.19
2023-01-28T16:18:59.705Z,97542.22
2023-01-28T16:21:29.827Z,97547.97
2023-01-28T16:24:02.137Z,97549.84
2023-01-28T16:26:31.388Z,97545.59
2023-01-28T16:28:59.274Z,97552.81
2023-01-28T16:31:26.955Z,97565.19
2023-01-28T16:33:54.610Z,97564.47
2023-01-28T16:36:23.632Z,97567.13
2023-01-28T16:38:51.256Z,97566.31
2023-01-28T16:41:26.662Z,97571.44
2023-01-28T16:43:54.283Z,97576.59
2023-01-28T16:46:22.216Z,97566.31
2023-01-28T16:48:49.801Z,97561.97
2023-01-28T16:51:18.806Z,97568.06
2023-01-28T16:53:49.367Z,97567.44
2023-01-28T16:56:30.741Z,97569.28
2023-01-28T16:59:06.996Z,97569.28
2023-01-28T17:01:34.488Z,97564.97
2023-01-28T17:04:03.794Z,97571.44
2023-01-28T17:06:31.411Z,97571.03
2023-01-28T17:09:00.321Z,97577.00
2023-01-28T17:11:29.811Z,97576.38
2023-01-28T17:13:57.414Z,97574.13
2023-01-28T17:16:24.995Z,97572.81
2023-01-28T17:18:52.832Z,97577.41
2023-01-28T17:21:20.377Z,97565.78
2023-01-28T17:23:48.374Z,97569.38
2023-01-28T17:26:17.945Z,97569.38
2023-01-28T17:28:45.548Z,97561.78
2023-01-28T17:31:14.717Z,97565.16
2023-01-28T17:33:43.626Z,97562.81
2023-01-28T17:36:11.505Z,97559.50
2023-01-28T17:38:39.304Z,97569.69
2023-01-28T17:41:12.056Z,97574.72
2023-01-28T17:43:41.390Z,97583.16
2023-01-28T17:46:12.582Z,97576.38
2023-01-28T17:48:40.604Z,97582.44
2023-01-28T17:51:08.300Z,97588.53
2023-01-28T17:53:36.176Z,97585.94
2023-01-28T17:56:03.701Z,97589.84
2023-01-28T17:58:31.321Z,97587.28
2023-01-28T18:01:00.273Z,97591.38
2023-01-28T18:03:27.930Z,97588.72
2023-01-28T18:05:59.389Z,97591.38
2023-01-28T18:08:27.332Z,97589.75
2023-01-28T18:10:55.932Z,97593.88
2023-01-28T18:13:23.614Z,97602.41
2023-01-28T18:15:51.188Z,97604.06
2023-01-28T18:18:20.117Z,97602.09
2023-01-28T18:20:47.657Z,97601.28
2023-01-28T18:23:15.233Z,97609.72
2023-01-28T18:25:42.854Z,97606.94
2023-01-28T18:28:10.563Z,97595.72
2023-01-28T18:30:38.156Z,97603.53
2023-01-28T18:33:05.851Z,97605.09
2023-01-28T18:35:34.840Z,97605.09
2023-01-28T18:38:02.682Z,97597.56
2023-01-28T18:40:30.375Z,97602.09
2023-01-28T18:42:57.891Z,97601.28
2023-01-28T18:45:25.448Z,97598.53
2023-01-28T18:47:52.974Z,97592.22
2023-01-28T18:50:20.881Z,97588.91
2023-01-28T18:52:49.838Z,97586.78
2023-01-28T18:55:18.897Z,97582.94
2023-01-28T18:57:46.633Z,97590.16
2023-01-28T19:00:14.933Z,97597.97
2023-01-28T19:02:42.650Z,97600.53
2023-01-28T19:05:10.963Z,97602.81
2023-01-28T19:07:38.439Z,97598.38
2023-01-28T19:10:08.072Z,97594.19
2023-01-28T19:12:36.332Z,97596.03
2023-01-28T19:15:03.942Z,97600.44
2023-01-28T19:17:31.468Z,97602.38
2023-01-28T19:19:58.995Z,97617.28
2023-01-28T19:22:26.486Z,97615.22
2023-01-28T19:24:54.050Z,97622.00
2023-01-28T19:27:22.879Z,97622.00
2023-01-28T19:29:50.412Z,97623.75
2023-01-28T19:32:17.921Z,97623.03
2023-01-28T19:34:45.451Z,97624.88
2023-01-28T19:37:13.375Z,97617.25
2023-01-28T19:39:40.966Z,97619.22
2023-01-28T19:42:08.542Z,97621.38
2023-01-28T19:44:37.446Z,97633.66
2023-01-28T19:47:05.734Z,97629.56
2023-01-28T19:49:33.625Z,97634.16
2023-01-28T19:52:01.700Z,97626.63
2023-01-28T19:54:29.434Z,97638.88
2023-01-28T19:56:56.951Z,97636.47
2023-01-28T19:59:24.634Z,97633.00
2023-01-28T20:01:53.497Z,97640.41
2023-01-28T20:04:21.133Z,97634.03
2023-01-28T20:06:50.249Z,97632.75
2023-01-28T20:09:20.323Z,97643.66
2023-01-28T20:11:47.933Z,97645.41
2023-01-28T20:14:16.128Z,97650.53
2023-01-28T20:16:43.631Z,97652.81
2023-01-28T20:19:16.953Z,97652.50
2023-01-28T20:21:45.509Z,97647.19
2023-01-28T20:24:14.229Z,97649.94
2023-01-28T20:26:43.685Z,97648.50
2023-01-28T20:29:13.201Z,97653.09
2023-01-28T20:31:42.366Z,97651.66
2023-01-28T20:34:16.177Z,97657.53
2023-01-28T20:36:44.111Z,97659.78
2023-01-28T20:39:13.073Z,97672.34
2023-01-28T20:41:40.580Z,97668.66
2023-01-28T20:44:08.164Z,97671.06
2023-01-28T20:46:36.578Z,97680.19
2023-01-28T20:49:06.700Z,97673.22
2023-01-28T20:51:36.486Z,97673.94
2023-01-28T20:54:04.191Z,97682.50
2023-01-28T20:56:32.213Z,97689.28
2023-01-28T20:59:02.004Z,97693.53
2023-01-28T21:01:31.879Z,97700.38
2023-01-28T21:03:59.451Z,97709.03
2023-01-28T21:06:28.101Z,97715.38
2023-01-28T21:08:57.893Z,97717.50
2023-01-28T21:11:26.429Z,97722.13
2023-01-28T21:13:54.704Z,97720.66
2023-01-28T21:16:22.939Z,97719.94
2023-01-28T21:18:50.691Z,97722.50
2023-01-28T21:21:20.088Z,97722.50
2023-01-28T21:23:48.054Z,97711.31
2023-01-28T21:26:17.333Z,97709.38
2023-01-28T21:28:46.026Z,97711.63
2023-01-28T21:31:16.595Z,97705.59
2023-01-28T21:33:44.080Z,97694.38
2023-01-28T21:36:13.863Z,97702.81
2023-01-28T21:38:41.700Z,97700.34
2023-01-28T21:41:10.350Z,97702.22
2023-01-28T21:43:39.240Z,97698.69
2023-01-28T21:46:06.907Z,97688.50
2023-01-28T21:48:34.528Z,97695.19
2023-01-28T21:51:25.468Z,97686.78
2023-01-28T21:53:53.663Z,97685.22
2023-01-28T21:56:21.211Z,97686.31
2023-01-28T21:59:07.857Z,97676.16
2023-01-28T22:01:35.886Z,97685.72
2023-01-28T22:04:04.015Z,97698.84
2023-01-28T22:06:31.613Z,97698.84
2023-01-28T22:08:59.208Z,97704.81
2023-01-28T22:11:26.819Z,97699.47
2023-01-28T22:13:55.769Z,97698.56
2023-01-28T22:16:23.317Z,97698.47
2023-01-28T22:18:51.075Z,97701.75
2023-01-28T22:21:18.561Z,97706.06
2023-01-28T22:23:46.112Z,97699.38
2023-01-28T22:26:13.753Z,97695.34
2023-01-28T22:28:41.244Z,97696.38
2023-01-28T22:31:11.676Z,97712.59
2023-01-28T22:33:39.800Z,97717.75
2023-01-28T22:36:10.713Z,97724.72
2023-01-28T22:38:39.258Z,97729.13
2023-01-28T22:41:07.411Z,97715.47
2023-01-28T22:43:34.946Z,97716.41
2023-01-28T22:46:04.048Z,97706.41
2023-01-28T22:48:33.260Z,97701.63
2023-01-28T22:51:05.540Z,97698.34
2023-01-28T22:53:33.125Z,97689.91
2023-01-28T22:56:02.540Z,97692.47
2023-01-28T22:58:31.656Z,97689.91
2023-01-28T23:00:59.863Z,97691.53
2023-01-28T23:03:27.447Z,97694.03
2023-01-28T23:06:00.354Z,97694.66
2023-01-28T23:08:28.803Z,97700.63
2023-01-28T23:10:57.327Z,97700.63
2023-01-28T23:13:26.364Z,97703.28
2023-01-28T23:16:12.641Z,97699.06
2023-01-28T23:18:57.973Z,97682.63
2023-01-28T23:21:46.721Z,97690.34
2023-01-28T23:24:22.764Z,97704.00
2023-01-28T23:26:51.801Z,97709.88
2023-01-28T23:29:19.862Z,97714.81
2023-01-28T23:31:48.743Z,97706.19
2023-01-28T23:34:18.063Z,97698.56
2023-01-28T23:36:47.167Z,97703.72
2023-01-28T23:39:14.677Z,97685.22
2023-01-28T23:41:42.194Z,97693.19
2023-01-28T23:44:09.695Z,97697.69
2023-01-28T23:46:39.742Z,97698.72
2023-01-28T23:49:08.427Z,97704.06
2023-01-28T23:51:36.004Z,97694.50
2023-01-28T23:54:04.995Z,97689.25
2023-01-28T23:56:34.468Z,97692.75
2023-01-28T23:59:03.471Z,97703.31
